createdAt,value
2017-11-28T00:00:53.290Z,5.54
2017-11-28T00:01:53.258Z,5.58
2017-11-28T00:02:53.242Z,5.61
2017-11-28T00:03:53.220Z,5.64
2017-11-28T00:04:53.197Z,5.60
2017-11-28T00:05:53.176Z,5.60
2017-11-28T00:06:53.161Z,5.68
2017-11-28T00:07:53.136Z,5.64
2017-11-28T00:08:53.117Z,5.71
2017-11-28T00:09:53.095Z,5.64
2017-11-28T00:10:53.066Z,5.68
2017-11-28T00:11:53.053Z,5.58
2017-11-28T00:12:53.028Z,5.63
2017-11-28T00:13:53.008Z,5.68
2017-11-28T00:14:52.986Z,5.58
2017-11-28T00:15:52.961Z,5.57
2017-11-28T00:16:52.947Z,5.65
2017-11-28T00:17:52.921Z,5.57
2017-11-28T00:18:52.904Z,5.61
2017-11-28T00:19:52.884Z,5.68
2017-11-28T00:20:52.860Z,5.63
2017-11-28T00:21:52.838Z,5.65
2017-11-28T00:22:52.818Z,5.71
2017-11-28T00:23:52.795Z,5.64
2017-11-28T00:24:52.777Z,5.67
2017-11-28T00:25:52.756Z,5.63
2017-11-28T00:26:52.733Z,5.60
2017-11-28T00:27:52.709Z,5.57
2017-11-28T00:28:52.703Z,5.63
2017-11-28T00:29:52.670Z,5.61
2017-11-28T00:30:52.659Z,5.71
2017-11-28T00:31:52.632Z,5.64
2017-11-28T00:32:52.617Z,5.63
2017-11-28T00:33:52.585Z,5.58
2017-11-28T00:34:52.568Z,5.72
2017-11-28T00:35:52.541Z,5.64
2017-11-28T00:36:52.528Z,5.58
2017-11-28T00:37:52.499Z,5.64
2017-11-28T00:38:52.478Z,5.61
2017-11-28T00:39:52.462Z,5.68
2017-11-28T00:40:52.442Z,5.65
2017-11-28T00:41:52.417Z,5.60
2017-11-28T00:42:52.392Z,5.60
2017-11-28T00:43:52.376Z,5.56
2017-11-28T00:44:52.352Z,5.58
2017-11-28T00:45:52.328Z,5.61
2017-11-28T00:46:52.307Z,5.65
2017-11-28T00:47:52.287Z,5.72
2017-11-28T00:48:52.267Z,5.65
2017-11-28T00:49:52.246Z,5.57
2017-11-28T00:50:52.226Z,5.58
2017-11-28T00:51:52.207Z,5.64
2017-11-28T00:52:52.188Z,5.61
2017-11-28T00:53:52.164Z,5.65
2017-11-28T00:54:52.139Z,5.64
2017-11-28T00:55:52.118Z,5.63
2017-11-28T00:56:52.098Z,5.61
2017-11-28T00:57:52.074Z,5.58
2017-11-28T00:58:52.054Z,5.61
2017-11-28T00:59:52.035Z,5.60
2017-11-28T01:00:52.013Z,5.65
2017-11-28T01:01:51.997Z,5.63
2017-11-28T01:02:51.973Z,5.61
2017-11-28T01:03:51.949Z,5.63
2017-11-28T01:04:51.928Z,5.65
2017-11-28T01:05:51.908Z,5.65
2017-11-28T01:06:51.885Z,5.67
2017-11-28T01:07:51.870Z,5.64
2017-11-28T01:08:51.845Z,5.64
2017-11-28T01:09:51.826Z,5.57
2017-11-28T01:10:51.797Z,5.63
2017-11-28T01:11:51.778Z,5.51
2017-11-28T01:12:51.758Z,5.56
2017-11-28T01:13:51.738Z,5.53
2017-11-28T01:14:51.722Z,5.58
2017-11-28T01:15:51.695Z,5.46
2017-11-28T01:16:51.679Z,5.54
2017-11-28T01:17:51.659Z,5.48
2017-11-28T01:18:51.635Z,5.45
2017-11-28T01:19:51.608Z,5.49
2017-11-28T01:20:51.588Z,5.46
2017-11-28T01:21:51.575Z,5.51
2017-11-28T01:22:51.545Z,5.54
2017-11-28T01:23:51.529Z,5.56
2017-11-28T01:24:51.505Z,5.51
2017-11-28T01:25:51.482Z,5.48
2017-11-28T01:26:51.459Z,5.45
2017-11-28T01:27:51.448Z,5.45
2017-11-28T01:28:51.418Z,5.43
2017-11-28T01:29:51.398Z,5.43
2017-11-28T01:30:51.381Z,5.39
2017-11-28T01:31:51.355Z,5.31
2017-11-28T01:32:51.342Z,5.45
2017-11-28T01:33:51.318Z,5.31
2017-11-28T01:34:51.292Z,5.35
2017-11-28T01:35:51.326Z,5.45
2017-11-28T01:36:51.249Z,5.38
2017-11-28T01:37:51.228Z,5.39
2017-11-28T01:38:51.210Z,5.46
2017-11-28T01:39:51.186Z,5.43
2017-11-28T01:40:51.166Z,5.45
2017-11-28T01:41:51.144Z,5.48
2017-11-28T01:42:51.131Z,5.42
2017-11-28T01:43:51.105Z,5.40
2017-11-28T01:44:51.087Z,5.40
2017-11-28T01:45:51.058Z,5.42
2017-11-28T01:46:51.039Z,5.53
2017-11-28T01:47:51.020Z,5.48
2017-11-28T01:48:50.998Z,5.45
2017-11-28T01:49:50.975Z,5.43
2017-11-28T01:50:50.963Z,5.48
2017-11-28T01:51:50.935Z,5.54
2017-11-28T01:52:50.911Z,5.43
2017-11-28T01:53:50.892Z,5.48
2017-11-28T01:54:50.868Z,5.45
2017-11-28T01:55:50.855Z,5.43
2017-11-28T01:56:50.830Z,5.39
2017-11-28T01:57:50.808Z,5.43
2017-11-28T01:58:50.784Z,5.43
2017-11-28T01:59:50.768Z,5.46
2017-11-28T02:00:50.744Z,5.43
2017-11-28T02:01:50.722Z,5.43
2017-11-28T02:02:50.708Z,5.42
2017-11-28T02:03:50.684Z,5.43
2017-11-28T02:04:50.665Z,5.43
2017-11-28T02:05:50.642Z,5.43
2017-11-28T02:06:50.617Z,5.45
2017-11-28T02:07:50.595Z,5.49
2017-11-28T02:08:50.578Z,5.38
2017-11-28T02:09:50.559Z,5.43
2017-11-28T02:10:50.534Z,5.54
2017-11-28T02:11:50.515Z,5.49
2017-11-28T02:12:50.500Z,5.46
2017-11-28T02:13:50.468Z,5.45
2017-11-28T02:14:50.448Z,5.46
2017-11-28T02:15:50.428Z,5.39
2017-11-28T02:16:50.409Z,5.40
2017-11-28T02:17:50.391Z,5.35
2017-11-28T02:18:50.370Z,5.38
2017-11-28T02:19:50.348Z,5.36
2017-11-28T02:20:50.325Z,5.33
2017-11-28T02:21:50.302Z,5.42
2017-11-28T02:22:50.280Z,5.36
2017-11-28T02:23:50.262Z,5.35
2017-11-28T02:24:50.237Z,5.38
2017-11-28T02:25:50.219Z,5.39
2017-11-28T02:26:50.206Z,5.28
2017-11-28T02:27:50.176Z,5.30
2017-11-28T02:28:50.160Z,5.28
2017-11-28T02:29:50.134Z,5.31
2017-11-28T02:30:50.113Z,5.35
2017-11-28T02:31:50.095Z,5.31
2017-11-28T02:32:50.073Z,5.40
2017-11-28T02:33:50.049Z,5.35
2017-11-28T02:34:50.028Z,5.35
2017-11-28T02:35:50.021Z,5.46
2017-11-28T02:36:49.988Z,5.43
2017-11-28T02:37:49.970Z,5.39
2017-11-28T02:38:49.949Z,5.43
2017-11-28T02:39:49.921Z,5.39
2017-11-28T02:40:49.906Z,5.45
2017-11-28T02:41:49.884Z,5.46
2017-11-28T02:42:49.866Z,5.48
2017-11-28T02:43:49.837Z,5.39
2017-11-28T02:44:49.820Z,5.43
2017-11-28T02:45:49.796Z,5.43
2017-11-28T02:46:49.784Z,5.38
2017-11-28T02:47:49.759Z,5.40
2017-11-28T02:48:49.732Z,5.30
2017-11-28T02:49:49.713Z,5.38
2017-11-28T02:50:49.696Z,5.40
2017-11-28T02:51:49.679Z,5.35
2017-11-28T02:52:49.648Z,5.28
2017-11-28T02:53:49.627Z,5.33
2017-11-28T02:54:49.606Z,5.39
2017-11-28T02:55:49.588Z,5.42
2017-11-28T02:56:49.570Z,5.33
2017-11-28T02:57:49.548Z,5.31
2017-11-28T02:58:49.522Z,5.40
2017-11-28T02:59:49.501Z,5.38
2017-11-28T03:00:49.481Z,5.40
2017-11-28T03:01:49.460Z,5.35
2017-11-28T03:02:49.437Z,5.31
2017-11-28T03:03:49.415Z,5.38
2017-11-28T03:04:49.394Z,5.36
2017-11-28T03:05:49.380Z,5.35
2017-11-28T03:06:49.355Z,5.43
2017-11-28T03:07:49.380Z,5.35
2017-11-28T03:08:49.307Z,5.43
2017-11-28T03:09:49.289Z,5.39
2017-11-28T03:10:49.276Z,5.40
2017-11-28T03:11:49.248Z,5.30
2017-11-28T03:12:49.230Z,5.42
2017-11-28T03:13:49.203Z,5.49
2017-11-28T03:14:49.185Z,5.45
2017-11-28T03:15:49.159Z,5.42
2017-11-28T03:16:49.137Z,5.48
2017-11-28T03:17:49.119Z,5.43
2017-11-28T03:18:49.096Z,5.45
2017-11-28T03:19:49.075Z,5.46
2017-11-28T03:20:49.058Z,5.43
2017-11-28T03:21:49.035Z,5.48
2017-11-28T03:22:49.010Z,5.42
2017-11-28T03:23:48.996Z,5.51
2017-11-28T03:24:48.976Z,5.46
2017-11-28T03:25:48.947Z,5.43
2017-11-28T03:26:48.932Z,5.43
2017-11-28T03:27:48.907Z,5.40
2017-11-28T03:28:48.884Z,5.48
2017-11-28T03:29:48.868Z,5.38
2017-11-28T03:30:48.846Z,5.46
2017-11-28T03:31:48.821Z,5.39
2017-11-28T03:32:48.799Z,5.33
2017-11-28T03:33:48.776Z,5.39
2017-11-28T03:34:48.758Z,5.45
2017-11-28T03:35:48.738Z,5.43
2017-11-28T03:36:48.718Z,5.46
2017-11-28T03:37:48.694Z,5.43
2017-11-28T03:38:48.670Z,5.45
2017-11-28T03:39:48.650Z,5.36
2017-11-28T03:40:48.630Z,5.45
2017-11-28T03:41:48.608Z,5.33
2017-11-28T03:42:48.590Z,5.35
2017-11-28T03:43:48.574Z,5.36
2017-11-28T03:44:48.547Z,5.36
2017-11-28T03:45:48.528Z,5.46
2017-11-28T03:46:48.510Z,5.31
2017-11-28T03:47:48.479Z,5.33
2017-11-28T03:48:48.464Z,5.43
2017-11-28T03:49:48.442Z,5.38
2017-11-28T03:50:48.417Z,5.35
2017-11-28T03:51:48.398Z,5.42
2017-11-28T03:52:48.377Z,5.36
2017-11-28T03:53:48.353Z,5.31
2017-11-28T03:54:48.335Z,5.28
2017-11-28T03:55:48.314Z,5.30
2017-11-28T03:56:48.320Z,5.38
2017-11-28T03:57:48.268Z,5.40
2017-11-28T03:58:48.246Z,5.30
2017-11-28T03:59:48.226Z,5.35
2017-11-28T04:00:48.205Z,5.27
2017-11-28T04:01:48.191Z,5.31
2017-11-28T04:02:48.163Z,5.31
2017-11-28T04:03:48.139Z,5.28
2017-11-28T04:04:48.129Z,5.31
2017-11-28T04:05:48.101Z,5.31
2017-11-28T04:06:48.078Z,5.31
2017-11-28T04:07:48.057Z,5.27
2017-11-28T04:08:48.031Z,5.36
2017-11-28T04:09:48.014Z,5.39
2017-11-28T04:10:47.993Z,5.36
2017-11-28T04:11:47.968Z,5.31
2017-11-28T04:12:47.947Z,5.35
2017-11-28T04:13:47.931Z,5.30
2017-11-28T04:14:47.912Z,5.31
2017-11-28T04:15:47.881Z,5.22
2017-11-28T04:16:47.862Z,5.28
2017-11-28T04:17:47.839Z,5.24
2017-11-28T04:18:47.823Z,5.31
2017-11-28T04:19:47.799Z,5.20
2017-11-28T04:20:47.775Z,5.25
2017-11-28T04:21:47.757Z,5.27
2017-11-28T04:22:47.735Z,5.22
2017-11-28T04:23:47.718Z,5.17
2017-11-28T04:24:47.699Z,5.25
2017-11-28T04:25:47.671Z,5.22
2017-11-28T04:26:47.648Z,5.22
2017-11-28T04:27:47.624Z,5.18
2017-11-28T04:28:47.605Z,5.24
2017-11-28T04:29:47.584Z,5.24
2017-11-28T04:30:47.567Z,5.24
2017-11-28T04:31:47.546Z,5.21
2017-11-28T04:32:47.521Z,5.22
2017-11-28T04:33:47.498Z,5.15
2017-11-28T04:34:47.477Z,5.25
2017-11-28T04:35:47.457Z,5.12
2017-11-28T04:36:47.435Z,5.12
2017-11-28T04:37:47.421Z,5.21
2017-11-28T04:38:47.419Z,5.21
2017-11-28T04:39:47.371Z,5.24
2017-11-28T04:40:47.354Z,5.12
2017-11-28T04:41:47.337Z,5.15
2017-11-28T04:42:47.307Z,5.12
2017-11-28T04:43:47.284Z,5.17
2017-11-28T04:44:47.268Z,5.13
2017-11-28T04:45:47.244Z,5.06
2017-11-28T04:46:47.222Z,5.04
2017-11-28T04:47:47.205Z,5.03
2017-11-28T04:48:47.181Z,5.07
2017-11-28T04:49:47.157Z,4.99
2017-11-28T04:50:47.138Z,5.02
2017-11-28T04:51:47.120Z,5.04
2017-11-28T04:52:47.132Z,5.02
2017-11-28T04:53:47.076Z,5.10
2017-11-28T04:54:47.057Z,5.10
2017-11-28T04:55:47.032Z,5.09
2017-11-28T04:56:47.008Z,5.07
2017-11-28T04:57:46.993Z,5.07
2017-11-28T04:58:46.967Z,5.07
2017-11-28T04:59:46.945Z,5.03
2017-11-28T05:00:46.927Z,5.04
2017-11-28T05:01:46.902Z,5.12
2017-11-28T05:02:46.880Z,5.06
2017-11-28T05:03:46.868Z,5.06
2017-11-28T05:04:46.841Z,5.13
2017-11-28T05:05:46.819Z,5.10
2017-11-28T05:06:46.793Z,5.17
2017-11-28T05:07:46.770Z,5.18
2017-11-28T05:08:46.754Z,5.10
2017-11-28T05:09:46.737Z,5.09
2017-11-28T05:10:46.714Z,5.07
2017-11-28T05:11:46.693Z,5.09
2017-11-28T05:12:46.668Z,5.07
2017-11-28T05:13:46.648Z,5.09
2017-11-28T05:14:46.627Z,5.06
2017-11-28T05:15:46.603Z,5.06
2017-11-28T05:16:46.593Z,5.02
2017-11-28T05:17:46.560Z,5.00
2017-11-28T05:18:46.540Z,5.07
2017-11-28T05:19:46.518Z,5.10
2017-11-28T05:20:46.497Z,4.99
2017-11-28T05:21:46.476Z,5.03
2017-11-28T05:22:46.454Z,5.00
2017-11-28T05:23:46.437Z,4.97
2017-11-28T05:24:46.414Z,5.07
2017-11-28T05:25:46.392Z,5.04
2017-11-28T05:26:46.370Z,5.06
2017-11-28T05:27:46.348Z,5.00
2017-11-28T05:28:46.326Z,4.94
2017-11-28T05:29:46.307Z,4.94
2017-11-28T05:30:46.283Z,4.97
2017-11-28T05:31:46.262Z,5.03
2017-11-28T05:32:46.249Z,5.12
2017-11-28T05:33:46.219Z,5.02
2017-11-28T05:34:46.196Z,5.06
2017-11-28T05:35:46.183Z,5.00
2017-11-28T05:36:46.158Z,5.04
2017-11-28T05:37:46.141Z,5.06
2017-11-28T05:38:46.111Z,5.06
2017-11-28T05:39:46.090Z,5.04
2017-11-28T05:40:46.073Z,5.04
2017-11-28T05:41:46.047Z,5.06
2017-11-28T05:42:46.026Z,5.06
2017-11-28T05:43:46.012Z,5.03
2017-11-28T05:44:45.984Z,5.03
2017-11-28T05:45:45.962Z,5.04
2017-11-28T05:46:45.947Z,5.00
2017-11-28T05:47:45.919Z,5.00
2017-11-28T05:48:45.898Z,5.02
2017-11-28T05:49:45.874Z,5.02
2017-11-28T05:50:45.862Z,5.00
2017-11-28T05:51:45.833Z,5.02
2017-11-28T05:52:45.812Z,4.91
2017-11-28T05:53:45.854Z,4.92
2017-11-28T05:54:45.767Z,4.94
2017-11-28T05:55:45.746Z,4.97
2017-11-28T05:56:45.724Z,4.97
2017-11-28T05:57:45.707Z,4.99
2017-11-28T05:58:45.704Z,4.92
2017-11-28T05:59:45.679Z,4.96
2017-11-28T06:00:45.645Z,4.89
2017-11-28T06:01:45.619Z,4.92
2017-11-28T06:02:45.598Z,4.91
2017-11-28T06:03:45.582Z,4.94
2017-11-28T06:04:45.553Z,4.96
2017-11-28T06:05:45.532Z,4.96
2017-11-28T06:06:45.512Z,4.94
2017-11-28T06:07:45.488Z,4.94
2017-11-28T06:08:45.467Z,4.96
2017-11-28T06:09:45.447Z,5.04
2017-11-28T06:10:45.427Z,4.94
2017-11-28T06:11:45.406Z,4.89
2017-11-28T06:12:45.385Z,4.92
2017-11-28T06:13:45.360Z,4.89
2017-11-28T06:14:45.344Z,4.89
2017-11-28T06:15:45.319Z,4.96
2017-11-28T06:16:45.299Z,4.99
2017-11-28T06:17:45.272Z,4.92
2017-11-28T06:18:45.286Z,4.94
2017-11-28T06:19:45.238Z,4.94
2017-11-28T06:20:45.214Z,4.99
2017-11-28T06:21:45.192Z,4.92
2017-11-28T06:22:45.171Z,4.92
2017-11-28T06:23:45.147Z,4.86
2017-11-28T06:24:45.127Z,4.92
2017-11-28T06:25:45.105Z,4.92
2017-11-28T06:26:45.088Z,4.92
2017-11-28T06:27:45.061Z,4.85
2017-11-28T06:28:45.043Z,4.88
2017-11-28T06:29:45.020Z,4.84
2017-11-28T06:30:44.999Z,4.86
2017-11-28T06:31:44.978Z,4.89
2017-11-28T06:32:44.956Z,4.86
2017-11-28T06:33:44.937Z,4.84
2017-11-28T06:34:44.916Z,4.88
2017-11-28T06:35:44.890Z,4.86
2017-11-28T06:36:44.871Z,4.89
2017-11-28T06:37:44.851Z,4.86
2017-11-28T06:38:44.828Z,4.88
2017-11-28T06:39:44.804Z,4.86
2017-11-28T06:40:44.789Z,4.88
2017-11-28T06:41:44.773Z,4.88
2017-11-28T06:42:44.741Z,4.92
2017-11-28T06:43:44.725Z,4.92
2017-11-28T06:44:44.698Z,4.89
2017-11-28T06:45:44.677Z,4.88
2017-11-28T06:46:44.658Z,4.96
2017-11-28T06:47:44.637Z,4.94
2017-11-28T06:48:44.614Z,4.94
2017-11-28T06:49:44.593Z,4.96
2017-11-28T06:50:44.569Z,4.96
2017-11-28T06:51:44.546Z,5.02
2017-11-28T06:52:44.526Z,4.96
2017-11-28T06:53:44.507Z,4.91
2017-11-28T06:54:44.491Z,4.92
2017-11-28T06:55:44.465Z,4.94
2017-11-28T06:56:44.441Z,4.91
2017-11-28T06:57:44.429Z,4.96
2017-11-28T06:58:44.398Z,4.92
2017-11-28T06:59:44.378Z,4.89
2017-11-28T07:00:44.355Z,4.92
2017-11-28T07:01:44.336Z,4.92
2017-11-28T07:02:44.314Z,4.92
2017-11-28T07:03:44.306Z,4.94
2017-11-28T07:04:44.276Z,4.97
2017-11-28T07:05:44.248Z,4.97
2017-11-28T07:06:44.251Z,4.94
2017-11-28T07:07:44.206Z,4.99
2017-11-28T07:08:44.187Z,4.97
2017-11-28T07:09:44.164Z,4.92
2017-11-28T07:10:44.149Z,4.96
2017-11-28T07:11:44.125Z,4.92
2017-11-28T07:12:44.098Z,4.92
2017-11-28T07:13:44.402Z,4.91
2017-11-28T07:14:44.057Z,4.94
2017-11-28T07:15:44.036Z,4.91
2017-11-28T07:16:44.014Z,4.92
2017-11-28T07:17:44.001Z,4.91
2017-11-28T07:18:43.968Z,4.86
2017-11-28T07:19:43.954Z,4.80
2017-11-28T07:20:43.926Z,4.80
2017-11-28T07:21:43.905Z,4.88
2017-11-28T07:22:43.887Z,4.82
2017-11-28T07:23:43.864Z,4.84
2017-11-28T07:24:43.839Z,4.78
2017-11-28T07:25:43.816Z,4.89
2017-11-28T07:26:43.801Z,4.86
2017-11-28T07:27:43.776Z,4.91
2017-11-28T07:28:43.760Z,4.94
2017-11-28T07:29:43.730Z,4.80
2017-11-28T07:30:43.712Z,4.92
2017-11-28T07:31:43.689Z,4.80
2017-11-28T07:32:43.666Z,4.86
2017-11-28T07:33:43.648Z,4.88
2017-11-28T07:34:43.630Z,4.89
2017-11-28T07:35:43.602Z,4.82
2017-11-28T07:36:43.584Z,4.78
2017-11-28T07:37:43.557Z,4.85
2017-11-28T07:38:43.538Z,4.94
2017-11-28T07:39:43.516Z,4.77
2017-11-28T07:40:43.503Z,4.86
2017-11-28T07:41:43.474Z,4.86
2017-11-28T07:42:43.451Z,4.84
2017-11-28T07:43:43.428Z,4.94
2017-11-28T07:44:43.408Z,4.86
2017-11-28T07:45:43.393Z,4.78
2017-11-28T07:46:43.362Z,4.88
2017-11-28T07:47:43.344Z,4.89
2017-11-28T07:48:43.347Z,4.89
2017-11-28T07:49:43.297Z,4.89
2017-11-28T07:50:43.275Z,4.99
2017-11-28T07:51:43.255Z,4.86
2017-11-28T07:52:43.239Z,4.99
2017-11-28T07:53:43.215Z,4.94
2017-11-28T07:54:43.190Z,4.92
2017-11-28T07:55:43.168Z,4.97
2017-11-28T07:56:43.146Z,4.97
2017-11-28T07:57:43.126Z,4.94
2017-11-28T07:58:43.120Z,5.03
2017-11-28T07:59:43.090Z,5.07
2017-11-28T08:00:43.077Z,5.09
2017-11-28T08:01:43.038Z,5.12
2017-11-28T08:02:43.017Z,5.18
2017-11-28T08:03:42.999Z,5.17
2017-11-28T08:04:42.976Z,5.18
2017-11-28T08:05:42.950Z,5.27
2017-11-28T08:06:42.936Z,5.25
2017-11-28T08:07:42.912Z,5.20
2017-11-28T08:08:42.887Z,5.24
2017-11-28T08:09:42.869Z,5.24
2017-11-28T08:10:42.850Z,5.22
2017-11-28T08:11:42.822Z,5.22
2017-11-28T08:12:42.804Z,5.24
2017-11-28T08:13:42.781Z,5.25
2017-11-28T08:14:42.771Z,5.21
2017-11-28T08:15:42.742Z,5.24
2017-11-28T08:16:42.713Z,5.17
2017-11-28T08:17:42.702Z,5.27
2017-11-28T08:18:42.675Z,5.35
2017-11-28T08:19:42.656Z,5.27
2017-11-28T08:20:42.634Z,5.39
2017-11-28T08:21:42.609Z,5.35
2017-11-28T08:22:42.587Z,5.31
2017-11-28T08:23:42.564Z,5.27
2017-11-28T08:24:42.548Z,5.38
2017-11-28T08:25:42.521Z,5.35
2017-11-28T08:26:42.503Z,5.38
2017-11-28T08:27:42.479Z,5.28
2017-11-28T08:28:42.467Z,5.39
2017-11-28T08:29:42.458Z,5.35
2017-11-28T08:30:42.414Z,5.30
2017-11-28T08:31:42.397Z,5.39
2017-11-28T08:32:42.375Z,5.36
2017-11-28T08:33:42.351Z,5.39
2017-11-28T08:34:42.328Z,5.36
2017-11-28T08:35:42.307Z,5.33
2017-11-28T08:36:42.287Z,5.36
2017-11-28T08:37:42.267Z,5.43
2017-11-28T08:38:42.256Z,5.45
2017-11-28T08:39:42.219Z,5.33
2017-11-28T08:40:42.198Z,5.43
2017-11-28T08:41:42.179Z,5.39
2017-11-28T08:42:42.158Z,5.45
2017-11-28T08:43:42.145Z,5.43
2017-11-28T08:44:42.112Z,5.46
2017-11-28T08:45:42.092Z,5.46
2017-11-28T08:46:42.067Z,5.40
2017-11-28T08:47:42.049Z,5.43
2017-11-28T08:48:42.037Z,5.51
2017-11-28T08:49:42.009Z,5.51
2017-11-28T08:50:42.007Z,5.45
2017-11-28T08:51:41.967Z,5.51
2017-11-28T08:52:41.946Z,5.54
2017-11-28T08:53:41.922Z,5.46
2017-11-28T08:54:41.902Z,5.60
2017-11-28T08:55:41.883Z,5.49
2017-11-28T08:56:41.860Z,5.57
2017-11-28T08:57:41.836Z,5.51
2017-11-28T08:58:41.824Z,5.51
2017-11-28T08:59:41.802Z,5.51
2017-11-28T09:00:41.772Z,5.53
2017-11-28T09:01:41.757Z,5.51
2017-11-28T09:02:41.732Z,5.54
2017-11-28T09:03:41.708Z,5.54
2017-11-28T09:04:41.685Z,5.45
2017-11-28T09:05:41.668Z,5.56
2017-11-28T09:06:41.644Z,5.60
2017-11-28T09:07:41.643Z,5.63
2017-11-28T09:08:41.602Z,5.71
2017-11-28T09:09:41.577Z,5.46
2017-11-28T09:10:41.560Z,5.56
2017-11-28T09:11:41.537Z,5.48
2017-11-28T09:12:41.518Z,5.48
2017-11-28T09:13:41.494Z,5.53
2017-11-28T09:14:41.471Z,5.49
2017-11-28T09:15:41.450Z,5.63
2017-11-28T09:16:41.428Z,5.49
2017-11-28T09:17:41.417Z,5.58
2017-11-28T09:18:41.393Z,5.54
2017-11-28T09:19:41.367Z,5.63
2017-11-28T09:20:41.350Z,5.64
2017-11-28T09:21:41.320Z,5.64
2017-11-28T09:22:41.302Z,5.61
2017-11-28T09:23:41.280Z,5.58
2017-11-28T09:24:41.268Z,5.57
2017-11-28T09:25:41.242Z,5.46
2017-11-28T09:26:41.218Z,5.49
2017-11-28T09:27:41.202Z,5.49
2017-11-28T09:28:41.178Z,5.58
2017-11-28T09:29:41.153Z,5.49
2017-11-28T09:30:41.131Z,5.53
2017-11-28T09:31:41.117Z,5.49
2017-11-28T09:32:41.092Z,5.53
2017-11-28T09:33:41.065Z,5.61
2017-11-28T09:34:41.042Z,5.61
2017-11-28T09:35:41.027Z,5.67
2017-11-28T09:36:41.004Z,5.71
2017-11-28T09:37:40.990Z,5.68
2017-11-28T09:38:40.974Z,5.76
2017-11-28T09:39:40.942Z,5.75
2017-11-28T09:40:40.916Z,5.72
2017-11-28T09:41:40.901Z,5.81
2017-11-28T09:42:40.878Z,5.86
2017-11-28T09:43:40.854Z,5.78
2017-11-28T09:44:40.843Z,5.85
2017-11-28T09:45:40.814Z,5.78
2017-11-28T09:46:40.787Z,5.81
2017-11-28T09:47:40.773Z,5.85
2017-11-28T09:48:40.755Z,5.82
2017-11-28T09:49:40.727Z,5.79
2017-11-28T09:50:40.704Z,5.83
2017-11-28T09:51:40.695Z,5.85
2017-11-28T09:52:40.666Z,5.75
2017-11-28T09:53:40.640Z,5.90
2017-11-28T09:54:40.624Z,5.93
2017-11-28T09:55:40.598Z,5.86
2017-11-28T09:56:40.575Z,5.93
2017-11-28T09:57:40.557Z,5.93
2017-11-28T09:58:40.543Z,5.99
2017-11-28T09:59:40.518Z,5.94
2017-11-28T10:00:40.499Z,5.90
2017-11-28T10:01:40.482Z,5.94
2017-11-28T10:02:40.449Z,5.93
2017-11-28T10:03:40.439Z,5.99
2017-11-28T10:04:40.407Z,5.99
2017-11-28T10:05:40.385Z,5.96
2017-11-28T10:06:40.363Z,5.93
2017-11-28T10:07:40.346Z,5.99
2017-11-28T10:08:40.324Z,5.91
2017-11-28T10:09:40.301Z,6.01
2017-11-28T10:10:40.299Z,6.06
2017-11-28T10:11:40.260Z,6.00
2017-11-28T10:12:40.238Z,6.00
2017-11-28T10:13:40.223Z,6.03
2017-11-28T10:14:40.196Z,6.00
2017-11-28T10:15:40.172Z,6.00
2017-11-28T10:16:40.155Z,5.96
2017-11-28T10:17:40.130Z,6.01
2017-11-28T10:18:40.109Z,6.04
2017-11-28T10:19:40.091Z,6.01
2017-11-28T10:20:40.073Z,6.00
2017-11-28T10:21:40.044Z,6.06
2017-11-28T10:22:40.026Z,6.11
2017-11-28T10:23:40.009Z,6.25
2017-11-28T10:24:39.982Z,6.25
2017-11-28T10:25:39.967Z,6.28
2017-11-28T10:26:39.937Z,6.36
2017-11-28T10:27:39.928Z,6.33
2017-11-28T10:28:39.898Z,6.36
2017-11-28T10:29:39.881Z,6.38
2017-11-28T10:30:39.867Z,6.36
2017-11-28T10:31:39.839Z,6.33
2017-11-28T10:32:39.812Z,6.34
2017-11-28T10:33:39.791Z,6.38
2017-11-28T10:34:39.767Z,6.38
2017-11-28T10:35:39.756Z,6.44
2017-11-28T10:36:39.738Z,6.36
2017-11-28T10:37:39.709Z,6.28
2017-11-28T10:38:39.686Z,6.33
2017-11-28T10:39:39.670Z,6.22
2017-11-28T10:40:39.648Z,6.17
2017-11-28T10:41:39.630Z,6.34
2017-11-28T10:42:39.611Z,6.21
2017-11-28T10:43:39.581Z,6.19
2017-11-28T10:44:39.562Z,6.18
2017-11-28T10:45:39.555Z,6.09
2017-11-28T10:46:39.520Z,6.18
2017-11-28T10:47:39.499Z,6.12
2017-11-28T10:48:39.479Z,6.15
2017-11-28T10:49:39.460Z,6.18
2017-11-28T10:50:39.438Z,6.19
2017-11-28T10:51:39.421Z,6.17
2017-11-28T10:52:39.396Z,6.19
2017-11-28T10:53:39.376Z,6.17
2017-11-28T10:54:39.357Z,6.14
2017-11-28T10:55:39.334Z,6.19
2017-11-28T10:56:39.309Z,6.27
2017-11-28T10:57:39.286Z,6.19
2017-11-28T10:58:39.288Z,6.17
2017-11-28T10:59:39.245Z,6.14
2017-11-28T11:00:39.233Z,6.18
2017-11-28T11:01:39.213Z,6.17
2017-11-28T11:02:39.182Z,6.12
2017-11-28T11:03:39.162Z,6.03
2017-11-28T11:04:39.148Z,6.06
2017-11-28T11:05:39.122Z,6.18
2017-11-28T11:06:39.100Z,6.06
2017-11-28T11:07:39.080Z,6.03
2017-11-28T11:08:39.055Z,6.11
2017-11-28T11:09:39.037Z,6.18
2017-11-28T11:10:39.020Z,6.22
2017-11-28T11:11:39.003Z,6.18
2017-11-28T11:12:38.973Z,6.15
2017-11-28T11:13:38.952Z,6.21
2017-11-28T11:14:38.931Z,6.30
2017-11-28T11:15:38.913Z,6.30
2017-11-28T11:16:38.887Z,6.30
2017-11-28T11:17:38.865Z,6.27
2017-11-28T11:18:38.849Z,6.28
2017-11-28T11:19:38.825Z,6.31
2017-11-28T11:20:38.802Z,6.33
2017-11-28T11:21:38.786Z,6.30
2017-11-28T11:22:38.757Z,6.40
2017-11-28T11:23:38.739Z,6.38
2017-11-28T11:24:38.718Z,6.38
2017-11-28T11:25:38.697Z,6.33
2017-11-28T11:26:38.679Z,6.31
2017-11-28T11:27:38.667Z,6.40
2017-11-28T11:28:38.637Z,6.46
2017-11-28T11:29:38.612Z,6.44
2017-11-28T11:30:38.588Z,6.37
2017-11-28T11:31:38.598Z,6.43
2017-11-28T11:32:38.551Z,6.44
2017-11-28T11:33:38.527Z,6.43
2017-11-28T11:34:38.508Z,6.59
2017-11-28T11:35:38.488Z,6.59
2017-11-28T11:36:38.482Z,6.71
2017-11-28T11:37:38.450Z,6.76
2017-11-28T11:38:38.422Z,6.76
2017-11-28T11:39:38.403Z,6.76
2017-11-28T11:40:38.382Z,6.73
2017-11-28T11:41:38.362Z,6.73
2017-11-28T11:42:38.338Z,6.73
2017-11-28T11:43:38.318Z,6.71
2017-11-28T11:44:38.296Z,6.64
2017-11-28T11:45:38.277Z,6.73
2017-11-28T11:46:38.255Z,6.70
2017-11-28T11:47:38.238Z,6.66
2017-11-28T11:48:38.217Z,6.70
2017-11-28T11:49:38.196Z,6.69
2017-11-28T11:50:38.176Z,6.69
2017-11-28T11:51:38.153Z,6.64
2017-11-28T11:52:38.129Z,6.56
2017-11-28T11:53:38.110Z,6.56
2017-11-28T11:54:38.091Z,6.58
2017-11-28T11:55:38.067Z,6.58
2017-11-28T11:56:38.047Z,6.67
2017-11-28T11:57:38.029Z,6.58
2017-11-28T11:58:38.005Z,6.62
2017-11-28T11:59:37.987Z,6.66
2017-11-28T12:00:37.963Z,6.59
2017-11-28T12:01:37.944Z,6.62
2017-11-28T12:02:37.928Z,6.58
2017-11-28T12:03:37.909Z,6.69
2017-11-28T12:04:37.888Z,6.58
2017-11-28T12:05:37.859Z,6.62
2017-11-28T12:06:37.837Z,6.61
2017-11-28T12:07:37.820Z,6.59
2017-11-28T12:08:37.798Z,6.59
2017-11-28T12:09:37.776Z,6.52
2017-11-28T12:10:37.757Z,6.62
2017-11-28T12:11:37.733Z,6.61
2017-11-28T12:12:37.721Z,6.58
2017-11-28T12:13:37.699Z,6.61
2017-11-28T12:14:37.671Z,6.54
2017-11-28T12:15:37.653Z,6.59
2017-11-28T12:16:37.631Z,6.61
2017-11-28T12:17:37.610Z,6.56
2017-11-28T12:18:37.590Z,6.56
2017-11-28T12:19:37.567Z,6.59
2017-11-28T12:20:37.551Z,6.59
2017-11-28T12:21:37.529Z,6.66
2017-11-28T12:22:37.509Z,6.62
2017-11-28T12:23:37.482Z,6.66
2017-11-28T12:24:37.467Z,6.66
2017-11-28T12:25:37.448Z,6.62
2017-11-28T12:26:37.423Z,6.67
2017-11-28T12:27:37.400Z,6.66
2017-11-28T12:28:37.383Z,6.66
2017-11-28T12:29:37.361Z,6.62
2017-11-28T12:30:37.338Z,6.58
2017-11-28T12:31:37.317Z,6.56
2017-11-28T12:32:37.301Z,6.64
2017-11-28T12:33:37.274Z,6.64
2017-11-28T12:34:37.258Z,6.64
2017-11-28T12:35:37.238Z,6.62
2017-11-28T12:36:37.219Z,6.62
2017-11-28T12:37:37.195Z,6.59
2017-11-28T12:38:37.180Z,6.59
2017-11-28T12:39:37.149Z,6.67
2017-11-28T12:40:37.143Z,6.56
2017-11-28T12:41:37.111Z,6.46
2017-11-28T12:42:37.091Z,6.59
2017-11-28T12:43:37.069Z,6.56
2017-11-28T12:44:37.049Z,6.56
2017-11-28T12:45:37.031Z,6.56
2017-11-28T12:46:37.004Z,6.56
2017-11-28T12:47:36.987Z,6.62
2017-11-28T12:48:36.964Z,6.59
2017-11-28T12:49:36.950Z,6.62
2017-11-28T12:50:36.927Z,6.59
2017-11-28T12:51:36.908Z,6.64
2017-11-28T12:52:36.881Z,6.67
2017-11-28T12:53:36.863Z,6.71
2017-11-28T12:54:36.851Z,6.71
2017-11-28T12:55:36.823Z,6.64
2017-11-28T12:56:36.801Z,6.67
2017-11-28T12:57:36.821Z,6.67
2017-11-28T12:58:36.762Z,6.76
2017-11-28T12:59:36.738Z,6.61
2017-11-28T13:00:36.729Z,6.62
2017-11-28T13:01:36.695Z,6.67
2017-11-28T13:02:36.682Z,6.59
2017-11-28T13:03:36.651Z,6.61
2017-11-28T13:04:36.635Z,6.56
2017-11-28T13:05:36.612Z,6.58
2017-11-28T13:06:36.592Z,6.59
2017-11-28T13:07:36.585Z,6.62
2017-11-28T13:08:36.548Z,6.56
2017-11-28T13:09:36.528Z,6.58
2017-11-28T13:10:36.505Z,6.61
2017-11-28T13:11:36.488Z,6.64
2017-11-28T13:12:36.464Z,6.64
2017-11-28T13:13:36.451Z,6.71
2017-11-28T13:14:36.426Z,6.73
2017-11-28T13:15:36.403Z,6.76
2017-11-28T13:16:36.387Z,6.79
2017-11-28T13:17:36.363Z,6.77
2017-11-28T13:18:36.341Z,6.87